Time;durP1;ratioP1;P1;durP2;ratioP2;P2;SDS_P1;SDS_P2;PMS_P1;PMS_P2;Temp;Humidity;BMP_temperature;BMP_pressure;BME280_temperature;BME280_humidity;BME280_pressure;Samples;Min_cycle;Max_cycle;Signal;HPM_P1;HPM_P2
2022/05/11 00:01:37;;;;;;;9.80;5.00;;;12.10;99.90;;;;;;4998392;28;20439;-71
2022/05/11 00:04:05;;;;;;;10.27;4.53;;;12.10;99.90;;;;;;4988583;28;20050;-71
2022/05/11 00:06:32;;;;;;;13.80;5.57;;;12.10;99.90;;;;;;5006006;28;20528;-71
2022/05/11 00:08:58;;;;;;;12.77;5.15;;;12.10;99.90;;;;;;4996269;28;20483;-71
2022/05/11 00:11:26;;;;;;;7.97;4.65;;;12.00;99.90;;;;;;5007840;28;20057;-71
2022/05/11 00:13:52;;;;;;;10.60;5.50;;;12.00;99.90;;;;;;4991437;28;20091;-71
2022/05/11 00:16:18;;;;;;;10.77;5.35;;;12.00;99.90;;;;;;5008072;28;20413;-71
2022/05/11 00:18:44;;;;;;;12.88;5.22;;;12.00;99.90;;;;;;5008463;28;20061;-71
2022/05/11 00:21:10;;;;;;;7.93;4.80;;;12.00;99.90;;;;;;5008602;28;20554;-71
2022/05/11 00:23:36;;;;;;;13.93;6.15;;;12.00;99.90;;;;;;5007840;28;20082;-71
2022/05/11 00:26:03;;;;;;;9.60;5.25;;;12.00;99.90;;;;;;5008216;28;20129;-71
2022/05/11 00:28:28;;;;;;;8.75;5.00;;;12.00;99.90;;;;;;4994993;28;20049;-71
2022/05/11 00:30:54;;;;;;;8.43;4.63;;;12.00;99.90;;;;;;5009830;28;20041;-71
2022/05/11 00:33:20;;;;;;;9.35;4.97;;;12.00;99.90;;;;;;4992379;28;20077;-71
2022/05/11 00:35:48;;;;;;;9.18;4.72;;;12.00;99.90;;;;;;4991698;28;20038;-71
2022/05/11 00:38:16;;;;;;;9.50;4.95;;;12.00;99.90;;;;;;5003537;28;20045;-70
2022/05/11 00:40:51;;;;;;;8.20;5.00;;;12.10;99.90;;;;;;5010912;28;20048;-71
2022/05/11 00:43:27;;;;;;;10.88;5.72;;;12.10;99.90;;;;;;4994721;28;20053;-71
2022/05/11 00:45:55;;;;;;;9.43;4.88;;;12.00;99.90;;;;;;4979239;28;20045;-71
2022/05/11 00:51:14;;;;;;;9.88;5.40;;;12.10;99.90;;;;;;5011829;28;20061;-72
2022/05/11 00:53:44;;;;;;;11.93;5.82;;;12.10;99.90;;;;;;5011044;28;20079;-72
2022/05/11 00:56:15;;;;;;;12.93;5.50;;;12.10;99.90;;;;;;5029025;28;20073;-72
2022/05/11 00:58:50;;;;;;;12.02;5.68;;;12.10;99.90;;;;;;5028775;28;20057;-71
2022/05/11 01:01:17;;;;;;;17.58;6.05;;;12.10;99.90;;;;;;5006103;28;20392;-72
2022/05/11 01:03:58;;;;;;;12.23;5.82;;;12.10;99.90;;;;;;4992090;28;20049;-72
2022/05/11 01:06:23;;;;;;;12.60;6.30;;;12.20;99.90;;;;;;5023448;28;20510;-72
2022/05/11 01:08:49;;;;;;;13.80;5.38;;;12.20;99.90;;;;;;4978229;28;20037;-71
2022/05/11 01:11:16;;;;;;;7.82;5.18;;;12.20;99.90;;;;;;5011035;28;20057;-71
2022/05/11 01:13:43;;;;;;;11.63;5.80;;;12.20;99.90;;;;;;5010867;28;20581;-71
2022/05/11 01:16:09;;;;;;;11.18;5.22;;;12.20;99.90;;;;;;5011390;28;20418;-71
2022/05/11 01:18:39;;;;;;;11.52;5.75;;;12.20;99.90;;;;;;5010190;28;20057;-71
2022/05/11 01:21:07;;;;;;;6.80;5.05;;;12.20;99.90;;;;;;4994692;28;20060;-71
2022/05/11 01:23:55;;;;;;;9.68;5.35;;;12.30;99.90;;;;;;5009974;28;20521;-71
2022/05/11 01:26:21;;;;;;;12.05;5.40;;;12.30;99.90;;;;;;5027438;28;20717;-72
2022/05/11 01:28:54;;;;;;;10.50;4.88;;;12.30;99.90;;;;;;5028622;28;20120;-72
2022/05/11 01:31:20;;;;;;;9.00;5.55;;;12.30;99.90;;;;;;5005193;28;20045;-71
2022/05/11 01:33:48;;;;;;;11.43;5.15;;;12.40;99.90;;;;;;4991189;28;20096;-71
2022/05/11 01:36:34;;;;;;;7.00;5.07;;;12.40;99.90;;;;;;5008033;28;20037;-73
2022/05/11 01:39:08;;;;;;;6.57;5.20;;;12.40;99.90;;;;;;4991457;28;20548;-72
2022/05/11 01:41:40;;;;;;;12.85;6.07;;;12.50;99.90;;;;;;5006960;28;20760;-71
2022/05/11 01:44:11;;;;;;;9.00;5.47;;;12.60;99.90;;;;;;4993683;28;20060;-71
2022/05/11 01:46:37;;;;;;;14.65;5.70;;;12.60;99.90;;;;;;5010918;28;20045;-71
2022/05/11 01:49:04;;;;;;;8.85;4.72;;;12.70;99.90;;;;;;4992979;28;20084;-72
2022/05/11 01:51:30;;;;;;;10.02;5.50;;;12.70;99.90;;;;;;5009774;28;20346;-71
2022/05/11 01:53:55;;;;;;;9.88;5.32;;;12.70;99.90;;;;;;4993624;28;20045;-71
2022/05/11 01:56:23;;;;;;;10.57;5.05;;;12.80;99.90;;;;;;4993595;28;20053;-71
2022/05/11 01:58:50;;;;;;;11.55;5.43;;;12.80;99.90;;;;;;5011028;28;20044;-71
2022/05/11 02:01:19;;;;;;;8.65;4.72;;;12.70;99.90;;;;;;4993411;28;20515;-71
2022/05/11 02:03:46;;;;;;;14.90;5.57;;;12.70;99.90;;;;;;4993657;28;20092;-71
2022/05/11 02:08:56;;;;;;;7.90;5.32;;;12.60;99.90;;;;;;5013199;28;20049;-71
2022/05/11 02:11:22;;;;;;;9.23;5.32;;;12.60;99.90;;;;;;5012772;28;20128;-71
2022/05/11 02:13:48;;;;;;;9.18;5.75;;;12.60;99.90;;;;;;5029580;28;20478;-71
2022/05/11 02:16:15;;;;;;;7.80;4.93;;;12.50;99.90;;;;;;5029387;28;20048;-72
2022/05/11 02:18:41;;;;;;;9.20;5.50;;;12.40;99.90;;;;;;5029146;28;20411;-71
2022/05/11 02:21:07;;;;;;;10.48;5.90;;;12.40;99.90;;;;;;5027864;28;20506;-71
2022/05/11 02:23:34;;;;;;;12.20;4.50;;;12.40;99.90;;;;;;5028671;28;20517;-71
2022/05/11 02:26:00;;;;;;;7.38;4.72;;;12.30;99.90;;;;;;5029601;28;20053;-71
2022/05/11 02:28:32;;;;;;;8.90;4.63;;;12.30;99.90;;;;;;5028519;28;20445;-72
2022/05/11 02:30:57;;;;;;;11.95;4.90;;;12.30;99.90;;;;;;5016354;28;20053;-72
2022/05/11 02:33:24;;;;;;;8.82;4.20;;;12.30;99.90;;;;;;4993188;28;20049;-71
2022/05/11 02:35:51;;;;;;;6.63;3.65;;;12.30;99.90;;;;;;4976937;28;20397;-72
2022/05/11 02:38:21;;;;;;;7.00;4.22;;;12.30;99.90;;;;;;5008856;28;20620;-71
2022/05/11 02:40:48;;;;;;;9.13;3.95;;;12.30;99.90;;;;;;5015792;28;20049;-71
2022/05/11 02:43:14;;;;;;;5.80;4.00;;;12.30;99.90;;;;;;5029494;28;20277;-71
2022/05/11 02:45:41;;;;;;;10.43;4.30;;;12.30;99.90;;;;;;5027712;28;20555;-71
2022/05/11 02:48:07;;;;;;;11.10;4.07;;;12.40;99.90;;;;;;5013005;28;20064;-72
2022/05/11 02:50:43;;;;;;;10.35;4.07;;;12.40;99.90;;;;;;5025759;28;20059;-72
2022/05/11 02:53:11;;;;;;;15.93;4.60;;;12.40;99.90;;;;;;5008841;28;20060;-72
2022/05/11 02:55:49;;;;;;;9.18;3.88;;;12.40;99.90;;;;;;4976686;28;20492;-72
2022/05/11 02:58:16;;;;;;;11.05;4.18;;;12.40;99.90;;;;;;5008484;28;20053;-72
2022/05/11 03:00:45;;;;;;;8.77;4.40;;;12.40;99.90;;;;;;4992215;28;20099;-72
2022/05/11 03:03:14;;;;;;;6.70;4.35;;;12.50;99.90;;;;;;5021812;28;20336;-71
2022/05/11 03:05:41;;;;;;;14.13;4.38;;;12.50;99.90;;;;;;4988908;28;20077;-71
2022/05/11 03:08:08;;;;;;;6.38;4.25;;;12.50;99.90;;;;;;4989544;28;20247;-71
2022/05/11 03:10:34;;;;;;;4.70;3.95;;;12.60;99.90;;;;;;4988112;28;20511;-72
2022/05/11 03:13:02;;;;;;;9.73;4.35;;;12.60;99.90;;;;;;5005382;28;20124;-72
2022/05/11 03:15:30;;;;;;;6.68;4.05;;;12.60;99.90;;;;;;5008110;28;20515;-71
2022/05/11 03:17:56;;;;;;;8.50;4.38;;;12.60;99.90;;;;;;5009159;28;20041;-72
2022/05/11 03:20:23;;;;;;;8.80;4.43;;;12.60;99.90;;;;;;5008517;28;20068;-72
2022/05/11 03:22:53;;;;;;;5.78;4.28;;;12.60;99.90;;;;;;5008039;28;20080;-72
2022/05/11 03:25:19;;;;;;;6.00;4.10;;;12.70;99.90;;;;;;4992051;28;20088;-72
2022/05/11 03:27:45;;;;;;;8.70;4.18;;;12.70;99.90;;;;;;5007996;28;20046;-71
2022/05/11 03:30:12;;;;;;;9.07;4.18;;;12.70;99.90;;;;;;5009089;28;20037;-72
2022/05/11 03:35:22;;;;;;;5.78;4.18;;;12.70;99.90;;;;;;5008848;28;20089;-72
2022/05/11 03:37:48;;;;;;;9.77;4.55;;;12.70;99.90;;;;;;5025408;28;20143;-72
2022/05/11 03:40:14;;;;;;;8.80;4.20;;;12.70;99.90;;;;;;5008440;28;20627;-73
2022/05/11 03:42:41;;;;;;;9.25;4.45;;;12.70;99.90;;;;;;5007580;28;20124;-71
2022/05/11 03:45:13;;;;;;;11.82;5.00;;;12.80;99.90;;;;;;5008143;28;20045;-72
2022/05/11 03:47:39;;;;;;;10.98;3.95;;;12.80;99.90;;;;;;5008453;28;20077;-72
2022/05/11 03:50:06;;;;;;;5.40;3.72;;;12.70;99.90;;;;;;4994828;28;20083;-72
2022/05/11 03:52:34;;;;;;;9.25;4.15;;;12.80;99.90;;;;;;5012248;28;20129;-71
2022/05/11 03:55:01;;;;;;;7.18;3.78;;;12.80;99.90;;;;;;5012409;28;20045;-72
2022/05/11 03:57:26;;;;;;;10.43;4.13;;;12.80;99.90;;;;;;4996347;28;20484;-71
2022/05/11 03:59:52;;;;;;;7.78;4.43;;;12.70;99.90;;;;;;5030157;28;20072;-71
2022/05/11 04:02:18;;;;;;;11.18;5.15;;;12.80;99.90;;;;;;5011152;28;20050;-71
2022/05/11 04:04:44;;;;;;;8.77;4.15;;;12.80;99.90;;;;;;4995649;28;20049;-71
2022/05/11 04:07:10;;;;;;;9.57;4.22;;;12.80;99.90;;;;;;5011538;28;20049;-72
2022/05/11 04:09:35;;;;;;;5.97;3.38;;;12.80;99.90;;;;;;5012601;28;20150;-72
2022/05/11 04:12:01;;;;;;;10.50;3.63;;;12.80;99.90;;;;;;5011085;28;20530;-72
2022/05/11 04:14:27;;;;;;;5.70;4.05;;;12.80;99.90;;;;;;5012494;28;20051;-71
2022/05/11 04:16:59;;;;;;;7.72;3.72;;;12.80;99.90;;;;;;4978898;28;20037;-71
2022/05/11 04:19:26;;;;;;;8.07;3.90;;;12.80;99.90;;;;;;4996214;28;20087;-72
2022/05/11 04:21:51;;;;;;;6.50;3.90;;;12.90;99.90;;;;;;5011498;28;20141;-72
2022/05/11 04:24:17;;;;;;;9.43;4.20;;;12.90;99.90;;;;;;4986220;28;20607;-71
2022/05/11 04:26:43;;;;;;;11.80;5.22;;;12.90;99.90;;;;;;4976441;28;20062;-71
2022/05/11 04:29:09;;;;;;;5.60;3.97;;;12.90;99.90;;;;;;4991886;28;20049;-71
2022/05/11 04:31:35;;;;;;;10.40;4.10;;;12.90;99.90;;;;;;5008821;28;20485;-71
2022/05/11 04:34:01;;;;;;;7.03;3.80;;;12.90;99.90;;;;;;5005969;28;20643;-72
2022/05/11 04:36:28;;;;;;;10.45;4.05;;;13.00;99.90;;;;;;5029575;28;20038;-72
2022/05/11 04:38:53;;;;;;;8.82;4.32;;;13.00;99.90;;;;;;5029171;28;20053;-72
2022/05/11 04:41:19;;;;;;;8.98;4.32;;;13.00;99.90;;;;;;5029096;28;20076;-72
2022/05/11 04:43:45;;;;;;;7.70;4.13;;;13.00;99.90;;;;;;4994959;28;20050;-72
2022/05/11 04:46:11;;;;;;;8.15;4.13;;;13.00;99.90;;;;;;4994578;28;20042;-72
2022/05/11 04:48:37;;;;;;;10.38;4.40;;;13.00;99.90;;;;;;5011893;28;20160;-72
2022/05/11 04:51:04;;;;;;;9.80;3.92;;;13.10;99.90;;;;;;5010942;28;20495;-72
2022/05/11 04:53:30;;;;;;;4.95;3.97;;;13.10;99.90;;;;;;5009481;28;20522;-72
2022/05/11 04:55:57;;;;;;;8.82;4.15;;;13.10;99.90;;;;;;5010882;28;20538;-72
2022/05/11 04:58:23;;;;;;;16.20;4.30;;;13.10;99.90;;;;;;5011005;28;20073;-72
2022/05/11 05:00:48;;;;;;;9.52;3.92;;;13.10;99.90;;;;;;5010006;28;20095;-72
2022/05/11 05:03:15;;;;;;;8.32;3.92;;;13.20;99.90;;;;;;4990933;28;20510;-71
2022/05/11 05:05:41;;;;;;;12.15;4.13;;;13.20;99.90;;;;;;4992727;28;20073;-71
2022/05/11 05:08:08;;;;;;;14.38;3.92;;;13.20;99.90;;;;;;4974936;28;20095;-72
2022/05/11 05:10:34;;;;;;;8.13;4.15;;;13.20;99.90;;;;;;4992155;28;20080;-71
2022/05/11 05:13:06;;;;;;;11.25;4.03;;;13.20;99.90;;;;;;4974596;28;20100;-72
2022/05/11 05:15:34;;;;;;;7.25;3.42;;;13.30;99.90;;;;;;4992225;28;20057;-72
2022/05/11 05:18:01;;;;;;;12.77;4.15;;;13.30;99.90;;;;;;4975071;28;20456;-71
2022/05/11 05:20:28;;;;;;;7.95;3.83;;;13.30;99.90;;;;;;4991125;28;20049;-71
2022/05/11 05:22:53;;;;;;;7.32;3.72;;;13.30;99.90;;;;;;4991044;28;20107;-72
2022/05/11 05:25:19;;;;;;;10.15;3.88;;;13.30;99.90;;;;;;4991662;28;20050;-71
2022/05/11 05:27:45;;;;;;;7.65;3.80;;;13.40;99.90;;;;;;4991083;28;20041;-71
2022/05/11 05:32:55;;;;;;;7.47;3.72;;;13.40;99.90;;;;;;4990336;28;20493;-71
2022/05/11 05:35:21;;;;;;;6.40;3.47;;;13.50;99.90;;;;;;4974797;28;20065;-72
2022/05/11 05:37:47;;;;;;;15.07;4.35;;;13.40;99.90;;;;;;4991042;28;20050;-72
2022/05/11 05:40:14;;;;;;;10.07;3.72;;;13.50;99.90;;;;;;4991163;28;20045;-72
2022/05/11 05:42:40;;;;;;;8.60;3.80;;;13.50;99.90;;;;;;4990492;28;20459;-71
2022/05/11 05:45:08;;;;;;;8.70;3.88;;;13.50;99.90;;;;;;4990683;28;20042;-72
2022/05/11 05:47:33;;;;;;;9.95;3.50;;;13.50;99.90;;;;;;5003191;28;20517;-72
2022/05/11 05:49:59;;;;;;;12.45;3.35;;;13.60;99.90;;;;;;4993586;28;20096;-71
2022/05/11 05:52:26;;;;;;;10.35;3.72;;;13.60;99.90;;;;;;5009993;28;20053;-72
2022/05/11 05:54:55;;;;;;;13.40;3.88;;;13.60;99.90;;;;;;5009808;28;20038;-71
2022/05/11 05:57:21;;;;;;;12.65;3.80;;;13.60;99.90;;;;;;5001588;28;20045;-71
2022/05/11 05:59:46;;;;;;;12.85;4.10;;;13.70;99.90;;;;;;4989574;28;20054;-71
2022/05/11 06:02:16;;;;;;;14.70;3.90;;;13.70;99.90;;;;;;4975135;28;20049;-71
2022/05/11 06:04:47;;;;;;;8.55;3.70;;;13.80;99.90;;;;;;4989830;28;20054;-71
2022/05/11 06:07:15;;;;;;;8.98;3.35;;;13.70;99.90;;;;;;4994062;28;20041;-72
2022/05/11 06:09:41;;;;;;;14.18;3.65;;;13.80;99.90;;;;;;5009898;28;20563;-72
2022/05/11 06:12:09;;;;;;;11.13;4.43;;;13.90;99.90;;;;;;5027314;28;20041;-72
2022/05/11 06:14:36;;;;;;;11.43;3.30;;;13.90;99.90;;;;;;5010417;28;20042;-72
2022/05/11 06:17:03;;;;;;;13.38;3.90;;;14.00;99.90;;;;;;5026604;28;20115;-72
2022/05/11 06:19:30;;;;;;;8.02;3.35;;;14.00;99.90;;;;;;5026337;28;20599;-71
2022/05/11 06:21:56;;;;;;;10.38;3.70;;;14.00;99.90;;;;;;5009219;28;20096;-71
2022/05/11 06:24:22;;;;;;;8.07;3.90;;;14.10;99.90;;;;;;5009472;28;20061;-72
2022/05/11 06:26:48;;;;;;;11.10;4.05;;;14.10;99.90;;;;;;5009123;28;20487;-72
2022/05/11 06:29:14;;;;;;;17.88;3.58;;;14.20;99.90;;;;;;5007802;28;20053;-72
2022/05/11 06:31:40;;;;;;;12.80;3.97;;;14.20;99.90;;;;;;5002065;28;20092;-72
2022/05/11 06:34:06;;;;;;;14.60;4.25;;;14.30;99.90;;;;;;4972849;28;20053;-71
2022/05/11 06:36:32;;;;;;;9.13;3.55;;;14.40;99.90;;;;;;4990205;28;20104;-71
2022/05/11 06:38:58;;;;;;;13.38;4.13;;;14.50;99.90;;;;;;4972941;28;20046;-72
2022/05/11 06:41:27;;;;;;;11.88;3.72;;;14.50;99.90;;;;;;4990049;28;20498;-71
2022/05/11 06:43:54;;;;;;;9.68;3.20;;;14.60;99.90;;;;;;4989432;28;20093;-71
2022/05/11 06:46:21;;;;;;;11.43;4.30;;;14.80;99.90;;;;;;4989613;28;20050;-73
2022/05/11 06:48:48;;;;;;;14.52;4.32;;;14.80;99.90;;;;;;4990508;28;20444;-71
2022/05/11 06:51:20;;;;;;;10.13;3.97;;;15.00;99.90;;;;;;4974227;28;20582;-72
2022/05/11 06:59:20;;;;;;;14.00;4.03;;;15.30;99.90;;;;;;5041563;28;20050;-73
2022/05/11 07:01:57;;;;;;;13.65;3.58;;;15.40;99.90;;;;;;5008708;28;20041;-71
2022/05/11 07:04:25;;;;;;;11.40;4.05;;;15.40;99.90;;;;;;5008497;28;20101;-72
2022/05/11 07:06:52;;;;;;;12.80;4.75;;;15.30;99.90;;;;;;5009115;28;20496;-71
2022/05/11 07:09:19;;;;;;;16.00;5.10;;;15.30;99.90;;;;;;5019685;28;20084;-72
2022/05/11 07:14:28;;;;;;;13.20;4.50;;;15.30;99.90;;;;;;5008492;28;20050;-72
2022/05/11 07:16:55;;;;;;;7.82;3.80;;;15.40;99.90;;;;;;5007807;28;20049;-72
2022/05/11 07:19:23;;;;;;;11.85;4.07;;;15.30;99.90;;;;;;5017043;28;20041;-71
2022/05/11 07:21:50;;;;;;;11.95;4.10;;;15.30;99.90;;;;;;5028016;28;20049;-73
2022/05/11 07:24:16;;;;;;;11.75;4.03;;;15.40;99.90;;;;;;5028345;28;20075;-71
2022/05/11 07:26:41;;;;;;;13.98;4.10;;;15.30;99.90;;;;;;5027926;28;20072;-71
2022/05/11 07:29:07;;;;;;;17.15;4.05;;;15.40;99.90;;;;;;5026393;28;20121;-72
2022/05/11 07:31:33;;;;;;;18.70;4.40;;;15.50;99.90;;;;;;5038839;28;20041;-71
2022/05/11 07:33:58;;;;;;;17.77;4.43;;;15.50;99.90;;;;;;5007664;28;20399;-72
2022/05/11 07:36:24;;;;;;;7.88;3.67;;;15.60;99.90;;;;;;5007870;28;20049;-71
2022/05/11 07:38:51;;;;;;;20.83;5.15;;;15.70;99.90;;;;;;5006909;28;20053;-71
2022/05/11 07:41:17;;;;;;;12.48;3.78;;;15.80;99.90;;;;;;5007269;28;20514;-71
2022/05/11 07:43:43;;;;;;;18.42;4.45;;;16.00;99.90;;;;;;5027026;28;20190;-73
2022/05/11 07:46:09;;;;;;;12.77;4.32;;;16.10;99.90;;;;;;5020727;28;20176;-71
2022/05/11 07:48:36;;;;;;;12.68;4.07;;;16.20;99.90;;;;;;5018552;28;20046;-71
2022/05/11 07:51:01;;;;;;;13.02;4.47;;;16.30;99.90;;;;;;4991256;28;20057;-72
2022/05/11 07:53:27;;;;;;;14.02;4.70;;;16.40;99.90;;;;;;5004901;28;20530;-72
2022/05/11 07:59:52;;;;;;;15.95;3.55;;;16.40;99.90;;;;;;5004700;28;20046;-72
2022/05/11 08:01:26;;;;;;;17.33;4.25;;;16.50;99.70;;;;;;4989304;28;20508;-71
2022/05/11 08:03:52;;;;;;;15.95;4.65;;;16.60;98.90;;;;;;5004789;28;20057;-71
2022/05/11 08:06:18;;;;;;;15.38;3.80;;;16.90;98.00;;;;;;5004282;28;20287;-71
2022/05/11 08:08:46;;;;;;;12.23;3.83;;;17.10;98.40;;;;;;4988399;28;20046;-72
2022/05/11 08:11:12;;;;;;;13.80;4.70;;;17.20;97.50;;;;;;4986020;28;20046;-71
2022/05/11 08:13:38;;;;;;;13.73;4.30;;;17.40;95.90;;;;;;4998682;28;20128;-71
2022/05/11 08:16:04;;;;;;;12.25;4.18;;;17.40;94.90;;;;;;4986088;28;20138;-71
2022/05/11 08:18:30;;;;;;;19.73;4.22;;;17.50;96.00;;;;;;5001163;28;20487;-71
2022/05/11 08:20:56;;;;;;;15.55;4.47;;;17.40;93.10;;;;;;5003632;28;20050;-71
2022/05/11 08:23:22;;;;;;;13.88;4.35;;;17.60;95.00;;;;;;4987879;28;20058;-72
2022/05/11 08:25:50;;;;;;;12.02;4.40;;;17.60;90.50;;;;;;4972120;28;20129;-71
2022/05/11 08:28:19;;;;;;;13.27;4.50;;;17.60;91.70;;;;;;5004068;28;20140;-71
2022/05/11 08:33:33;;;;;;;15.65;4.30;;;17.80;91.40;;;;;;5021878;28;20053;-71
2022/05/11 08:36:04;;;;;;;19.05;4.68;;;18.00;83.00;;;;;;5005160;28;20057;-71
2022/05/11 08:38:33;;;;;;;16.48;4.28;;;18.20;83.90;;;;;;5007108;28;20469;-71
2022/05/11 08:41:10;;;;;;;14.25;4.22;;;18.50;86.60;;;;;;5009777;28;20136;-71
2022/05/11 08:43:36;;;;;;;12.23;3.75;;;18.60;74.70;;;;;;5007882;28;20038;-71
2022/05/11 08:46:33;;;;;;;11.82;3.60;;;18.50;70.10;;;;;;5007225;28;20053;-71
2022/05/11 08:49:12;;;;;;;11.65;4.20;;;18.40;73.40;;;;;;5007057;28;20062;-71
2022/05/11 08:51:46;;;;;;;14.85;4.55;;;18.40;74.30;;;;;;5014167;28;20140;-70
2022/05/11 08:54:18;;;;;;;11.82;3.50;;;18.40;73.60;;;;;;5014350;28;20506;-71
2022/05/11 08:56:44;;;;;;;12.48;3.55;;;18.40;68.70;;;;;;5030791;28;20395;-71
2022/05/11 08:59:26;;;;;;;10.57;4.25;;;18.30;71.20;;;;;;5031371;28;20056;-71
2022/05/11 09:01:59;;;;;;;12.75;3.90;;;18.30;67.90;;;;;;5007494;28;20048;-70
2022/05/11 09:04:47;;;;;;;16.63;3.85;;;18.30;69.00;;;;;;5030649;28;20049;-70
2022/05/11 09:07:13;;;;;;;21.58;3.85;;;18.30;64.80;;;;;;5030337;28;20051;-71
2022/05/11 09:09:39;;;;;;;13.73;3.20;;;18.30;71.40;;;;;;5030476;28;20045;-72
2022/05/11 09:12:07;;;;;;;17.23;3.47;;;18.10;68.50;;;;;;5029458;28;20052;-70
2022/05/11 09:14:41;;;;;;;10.90;3.30;;;18.10;71.50;;;;;;5010365;28;20052;-70
2022/05/11 09:17:21;;;;;;;10.48;3.33;;;18.10;73.90;;;;;;5010871;28;20184;-72
2022/05/11 09:19:47;;;;;;;;;;;18.20;69.90;;;;;;5044293;28;20041;-70
2022/05/11 09:22:23;;;;;;;16.80;3.45;;;18.20;70.10;;;;;;5043661;28;19925;-71
2022/05/11 09:24:59;;;;;;;17.08;3.33;;;18.20;69.20;;;;;;4991436;28;20049;-71
2022/05/11 09:27:26;;;;;;;22.10;3.22;;;18.20;64.60;;;;;;4973926;28;20140;-71
2022/05/11 09:30:01;;;;;;;14.55;3.63;;;18.10;64.20;;;;;;4991541;28;20056;-71
2022/05/11 09:32:37;;;;;;;15.38;3.13;;;18.10;66.60;;;;;;5003758;28;20124;-70
2022/05/11 09:35:36;;;;;;;15.88;4.53;;;18.10;66.80;;;;;;5029223;28;20099;-71
2022/05/11 09:38:28;;;;;;;12.30;2.83;;;18.20;65.20;;;;;;5030875;28;20057;-71
2022/05/11 09:40:56;;;;;;;12.65;3.45;;;18.30;68.30;;;;;;5030110;28;20090;-71
2022/05/11 09:43:36;;;;;;;15.03;2.37;;;18.60;64.30;;;;;;5028075;28;20055;-71
2022/05/11 09:46:20;;;;;;;15.73;3.33;;;18.90;61.40;;;;;;5029402;28;20319;-71
2022/05/11 09:49:06;;;;;;;19.42;3.50;;;19.10;61.50;;;;;;5013471;28;20511;-72
2022/05/11 09:51:40;;;;;;;10.68;2.92;;;19.50;54.70;;;;;;5029656;28;20045;-71
2022/05/11 09:54:18;;;;;;;11.65;3.28;;;19.80;49.70;;;;;;5028464;28;20060;-72
2022/05/11 09:56:56;;;;;;;19.75;3.35;;;20.10;43.20;;;;;;5029833;28;20045;-70
2022/05/11 09:59:37;;;;;;;16.85;3.20;;;20.30;50.70;;;;;;5029870;28;20060;-70
2022/05/11 10:02:22;;;;;;;16.17;3.25;;;20.20;43.50;;;;;;5018590;28;20076;-70
2022/05/11 10:04:51;;;;;;;15.27;3.50;;;20.10;37.80;;;;;;4997560;28;20056;-70
2022/05/11 10:07:20;;;;;;;11.85;2.75;;;20.10;38.80;;;;;;5029285;28;20044;-70
2022/05/11 10:09:58;;;;;;;12.35;2.72;;;20.30;43.20;;;;;;5029649;28;20041;-71
2022/05/11 10:12:28;;;;;;;12.63;3.25;;;20.50;36.80;;;;;;5029915;28;20045;-71
2022/05/11 10:23:29;;;;;;;;;;;19.70;35.60;;;;;;5027454;28;20049;-71
2022/05/11 10:26:07;;;;;;;14.52;3.03;;;19.40;38.50;;;;;;5010824;28;20463;-70
2022/05/11 10:28:52;;;;;;;13.60;2.47;;;19.20;40.40;;;;;;5009136;28;20203;-71
2022/05/11 10:31:56;;;;;;;17.63;3.05;;;19.30;45.60;;;;;;5041660;28;20100;-71
2022/05/11 10:34:54;;;;;;;10.10;2.83;;;19.30;42.10;;;;;;4989755;28;20560;-71
2022/05/11 10:37:37;;;;;;;12.57;2.63;;;18.80;40.20;;;;;;5003594;28;20052;-71
2022/05/11 10:40:42;;;;;;;15.23;2.65;;;18.50;44.30;;;;;;5008560;28;20128;-70
2022/05/11 10:43:11;;;;;;;12.35;2.58;;;18.30;49.00;;;;;;4970781;28;20065;-71
2022/05/11 10:45:47;;;;;;;14.57;2.50;;;18.40;44.00;;;;;;5008163;28;20140;-71
2022/05/11 10:48:47;;;;;;;7.47;2.20;;;18.40;43.80;;;;;;5024449;28;20041;-71
2022/05/11 10:51:35;;;;;;;9.57;2.65;;;18.50;40.60;;;;;;5029201;28;20049;-71
2022/05/11 10:54:27;;;;;;;12.80;3.22;;;18.70;42.70;;;;;;5011371;28;20088;-71
2022/05/11 10:57:02;;;;;;;13.80;3.25;;;18.80;41.50;;;;;;5007230;28;20521;-71
2022/05/11 11:00:04;;;;;;;14.18;2.67;;;18.90;39.00;;;;;;5036888;28;20042;-71
2022/05/11 11:02:51;;;;;;;10.48;2.10;;;18.90;35.50;;;;;;5004202;28;20419;-71
2022/05/11 11:05:35;;;;;;;13.30;2.72;;;18.70;32.70;;;;;;5005326;28;20257;-71
2022/05/11 11:08:35;;;;;;;16.23;2.58;;;18.70;31.10;;;;;;5003568;28;20045;-71
2022/05/11 11:11:11;;;;;;;10.55;1.85;;;18.60;29.10;;;;;;5005686;28;20065;-70
2022/05/11 11:13:59;;;;;;;11.95;2.78;;;18.80;30.10;;;;;;5005635;28;21020;-71
2022/05/11 11:16:30;;;;;;;14.13;2.72;;;19.00;34.40;;;;;;5007195;28;20055;-71
2022/05/11 11:18:57;;;;;;;14.85;2.72;;;19.30;32.50;;;;;;5007479;28;20192;-71
2022/05/11 11:21:24;;;;;;;11.05;2.45;;;19.60;28.70;;;;;;5005466;28;20501;-71
2022/05/11 11:24:11;;;;;;;12.00;2.65;;;19.70;28.80;;;;;;4989658;28;20053;-71
2022/05/11 11:26:57;;;;;;;11.95;2.70;;;19.40;26.40;;;;;;5005601;28;20111;-69
2022/05/11 11:29:25;;;;;;;12.43;2.63;;;19.20;28.80;;;;;;5006162;28;20504;-71
2022/05/11 11:32:19;;;;;;;6.60;1.75;;;19.00;27.40;;;;;;5006977;28;20099;-72
2022/05/11 11:34:51;;;;;;;10.90;2.45;;;19.00;26.70;;;;;;4996528;28;20045;-71
2022/05/11 11:37:32;;;;;;;15.98;2.33;;;19.10;26.30;;;;;;5004915;28;20558;-70
2022/05/11 11:39:59;;;;;;;14.77;2.47;;;19.30;26.40;;;;;;5007974;28;20048;-70
2022/05/11 11:42:38;;;;;;;9.95;1.95;;;19.50;26.30;;;;;;5004628;28;20492;-71
2022/05/11 11:45:07;;;;;;;17.25;2.17;;;19.90;27.50;;;;;;5005523;28;20134;-70
2022/05/11 11:47:59;;;;;;;15.68;2.20;;;20.10;23.40;;;;;;5007217;28;20037;-70
2022/05/11 11:50:47;;;;;;;16.35;2.38;;;20.10;20.20;;;;;;5009244;28;20060;-71
2022/05/11 11:53:40;;;;;;;9.98;2.33;;;19.90;21.20;;;;;;5005085;28;20053;-70
2022/05/11 11:56:38;;;;;;;5.03;1.55;;;19.70;21.30;;;;;;5007881;28;20041;-71
2022/05/11 11:59:10;;;;;;;6.80;1.77;;;19.50;21.20;;;;;;4995744;28;20084;-71
2022/05/11 12:01:42;;;;;;;16.42;2.13;;;19.70;21.80;;;;;;5005737;28;20037;-71
2022/05/11 12:04:27;;;;;;;8.57;2.33;;;19.90;20.80;;;;;;5025482;28;20450;-71
2022/05/11 12:15:11;;;;;;;11.40;1.83;;;20.00;18.80;;;;;;5010951;28;20052;-71
2022/05/11 12:17:41;;;;;;;10.30;2.03;;;20.10;16.70;;;;;;5009807;28;20060;-71
2022/05/11 12:20:17;;;;;;;12.15;2.20;;;20.20;16.70;;;;;;5027807;28;20128;-71
2022/05/11 12:22:53;;;;;;;8.70;1.73;;;20.30;16.60;;;;;;5019138;28;20452;-70
2022/05/11 12:25:38;;;;;;;12.27;2.25;;;20.30;17.90;;;;;;5005016;28;20399;-70
2022/05/11 12:28:21;;;;;;;17.60;1.75;;;20.40;15.40;;;;;;5028734;28;20046;-71
2022/05/11 12:30:47;;;;;;;11.90;1.83;;;20.50;15.20;;;;;;5011663;28;20042;-71
2022/05/11 12:33:25;;;;;;;14.95;2.78;;;20.60;14.40;;;;;;5008727;28;20056;-71
2022/05/11 12:35:52;;;;;;;7.10;2.03;;;20.50;14.50;;;;;;5027794;28;20053;-70
2022/05/11 12:38:29;;;;;;;11.43;1.95;;;20.50;17.10;;;;;;5029088;28;20088;-71
2022/05/11 12:40:55;;;;;;;8.80;1.98;;;20.40;15.20;;;;;;5027762;28;20053;-70
2022/05/11 12:43:24;;;;;;;16.30;2.22;;;20.40;15.70;;;;;;5013506;28;21067;-70
2022/05/11 12:45:51;;;;;;;8.05;1.58;;;20.40;14.60;;;;;;5010021;28;20060;-70
2022/05/11 12:48:21;;;;;;;5.38;1.27;;;20.10;13.10;;;;;;5045040;28;20049;-70
2022/05/11 12:51:05;;;;;;;2.35;1.02;;;19.80;11.30;;;;;;5028761;28;20053;-70
2022/05/11 12:53:37;;;;;;;7.20;1.85;;;19.60;13.30;;;;;;5043585;28;20063;-71
2022/05/11 12:56:25;;;;;;;10.45;2.15;;;19.80;12.70;;;;;;5010302;28;20136;-71
2022/05/11 12:59:00;;;;;;;4.65;1.20;;;19.90;13.30;;;;;;5010615;28;20369;-70
2022/05/11 13:01:31;;;;;;;12.13;1.83;;;20.10;13.90;;;;;;5011075;28;20067;-71
2022/05/11 13:04:00;;;;;;;7.90;1.90;;;20.30;14.20;;;;;;5019602;28;20888;-71
2022/05/11 13:06:36;;;;;;;9.10;1.45;;;20.40;13.30;;;;;;5030918;28;20068;-70
2022/05/11 13:09:20;;;;;;;8.70;1.17;;;20.50;10.70;;;;;;5048990;28;20170;-71
2022/05/11 13:11:47;;;;;;;6.65;1.95;;;20.40;10.60;;;;;;5000663;28;20052;-71
2022/05/11 13:14:20;;;;;;;5.03;1.10;;;20.40;12.10;;;;;;5006480;28;20037;-71
2022/05/11 13:16:51;;;;;;;6.45;1.45;;;20.50;13.70;;;;;;5010115;28;20049;-71
2022/05/11 13:19:30;;;;;;;6.88;1.40;;;20.50;10.60;;;;;;4995019;28;20403;-71
2022/05/11 13:21:59;;;;;;;21.35;1.92;;;20.40;11.90;;;;;;5009964;28;20045;-70
2022/05/11 13:24:48;;;;;;;12.70;1.35;;;20.40;12.70;;;;;;5042529;28;20045;-71
2022/05/11 13:27:40;;;;;;;9.88;2.00;;;20.40;11.50;;;;;;5044496;28;20049;-70
2022/05/11 13:30:32;;;;;;;7.32;1.85;;;20.50;11.10;;;;;;5043834;28;20115;-71
2022/05/11 13:33:01;;;;;;;6.63;1.40;;;20.50;10.60;;;;;;5009751;28;20582;-72
2022/05/11 13:36:02;;;;;;;3.83;1.38;;;20.40;10.90;;;;;;5029464;28;20050;-70
2022/05/11 13:38:29;;;;;;;14.33;2.27;;;20.50;12.70;;;;;;5028656;28;20049;-71
2022/05/11 13:40:54;;;;;;;6.20;1.38;;;20.30;9.90;;;;;;5010066;28;20052;-70
2022/05/11 13:43:21;;;;;;;14.52;2.05;;;20.20;11.40;;;;;;5010585;28;20049;-71